sensor_id;sensor_type;location;lat;lon;timestamp;pressure;altitude;pressure_sealevel;temperature;humidity
50592;BME280;36548;50.506;30.834;2022-10-16T00:00:39;101250.53;;;8.38;57.48
50592;BME280;36548;50.506;30.834;2022-10-16T00:01:49;101244.80;;;8.25;57.43
50592;BME280;36548;50.506;30.834;2022-10-16T00:02:58;101259.22;;;8.21;57.36
50592;BME280;36548;50.506;30.834;2022-10-16T00:04:08;101258.45;;;8.17;57.53
50592;BME280;36548;50.506;30.834;2022-10-16T00:05:18;101254.16;;;8.13;57.56
50592;BME280;36548;50.506;30.834;2022-10-16T00:06:28;101260.55;;;8.09;57.67
50592;BME280;36548;50.506;30.834;2022-10-16T00:07:47;101256.30;;;8.03;57.80
50592;BME280;36548;50.506;30.834;2022-10-16T00:08:56;101253.05;;;7.95;58.18
50592;BME280;36548;50.506;30.834;2022-10-16T00:10:05;101250.55;;;7.90;58.21
50592;BME280;36548;50.506;30.834;2022-10-16T00:11:31;101254.80;;;7.96;58.38
50592;BME280;36548;50.506;30.834;2022-10-16T00:12:43;101247.41;;;7.79;58.49
50592;BME280;36548;50.506;30.834;2022-10-16T00:14:00;101248.98;;;7.84;58.60
50592;BME280;36548;50.506;30.834;2022-10-16T00:15:10;101257.52;;;7.71;58.63
50592;BME280;36548;50.506;30.834;2022-10-16T00:16:31;101250.23;;;7.74;58.78
50592;BME280;36548;50.506;30.834;2022-10-16T00:17:41;101256.98;;;7.61;58.75
50592;BME280;36548;50.506;30.834;2022-10-16T00:18:51;101254.51;;;7.55;58.83
50592;BME280;36548;50.506;30.834;2022-10-16T00:20:08;101245.39;;;7.60;58.97
50592;BME280;36548;50.506;30.834;2022-10-16T00:21:19;101254.83;;;7.45;59.02
50592;BME280;36548;50.506;30.834;2022-10-16T00:22:35;101259.05;;;7.53;59.14
50592;BME280;36548;50.506;30.834;2022-10-16T00:23:45;101265.74;;;7.39;59.15
50592;BME280;36548;50.506;30.834;2022-10-16T00:25:00;101259.25;;;7.46;59.06
50592;BME280;36548;50.506;30.834;2022-10-16T00:26:16;101257.13;;;7.31;59.14
50592;BME280;36548;50.506;30.834;2022-10-16T00:27:29;101248.86;;;7.39;59.25
50592;BME280;36548;50.506;30.834;2022-10-16T00:28:39;101255.54;;;7.25;59.41
50592;BME280;36548;50.506;30.834;2022-10-16T00:29:54;101255.17;;;7.36;59.25
50592;BME280;36548;50.506;30.834;2022-10-16T00:31:05;101256.45;;;7.24;59.31
50592;BME280;36548;50.506;30.834;2022-10-16T00:32:18;101252.98;;;7.22;59.27
50592;BME280;36548;50.506;30.834;2022-10-16T00:33:38;101253.53;;;7.32;59.25
50592;BME280;36548;50.506;30.834;2022-10-16T00:34:47;101255.71;;;7.21;59.09
50592;BME280;36548;50.506;30.834;2022-10-16T00:36:25;101260.66;;;7.31;59.04
50592;BME280;36548;50.506;30.834;2022-10-16T00:37:34;101264.64;;;7.20;59.09
50592;BME280;36548;50.506;30.834;2022-10-16T00:38:54;101261.66;;;7.29;58.90
50592;BME280;36548;50.506;30.834;2022-10-16T00:40:04;101266.45;;;7.19;58.93
50592;BME280;36548;50.506;30.834;2022-10-16T00:41:21;101261.69;;;7.27;58.92
50592;BME280;36548;50.506;30.834;2022-10-16T00:42:31;101263.86;;;7.16;58.89
50592;BME280;36548;50.506;30.834;2022-10-16T00:43:54;101262.69;;;7.25;59.03
50592;BME280;36548;50.506;30.834;2022-10-16T00:45:04;101261.24;;;7.14;58.88
50592;BME280;36548;50.506;30.834;2022-10-16T00:46:25;101260.08;;;7.23;58.87
50592;BME280;36548;50.506;30.834;2022-10-16T00:47:39;101260.44;;;7.12;58.83
50592;BME280;36548;50.506;30.834;2022-10-16T00:50:28;101266.70;;;7.11;58.71
50592;BME280;36548;50.506;30.834;2022-10-16T00:51:50;101262.83;;;7.20;59.00
50592;BME280;36548;50.506;30.834;2022-10-16T00:53:01;101267.61;;;7.10;58.84
50592;BME280;36548;50.506;30.834;2022-10-16T00:54:28;101268.11;;;7.22;58.77
50592;BME280;36548;50.506;30.834;2022-10-16T00:55:47;101269.36;;;7.11;58.70
50592;BME280;36548;50.506;30.834;2022-10-16T00:56:59;101270.28;;;7.10;58.74
50592;BME280;36548;50.506;30.834;2022-10-16T00:58:14;101273.45;;;7.22;58.86
50592;BME280;36548;50.506;30.834;2022-10-16T01:00:44;101271.63;;;7.24;58.84
50592;BME280;36548;50.506;30.834;2022-10-16T01:01:53;101270.14;;;7.15;58.64
50592;BME280;36548;50.506;30.834;2022-10-16T01:03:31;101275.09;;;7.26;58.58
50592;BME280;36548;50.506;30.834;2022-10-16T01:04:42;101273.73;;;7.14;58.69
50592;BME280;36548;50.506;30.834;2022-10-16T01:07:49;101270.09;;;7.16;58.49
50592;BME280;36548;50.506;30.834;2022-10-16T01:09:16;101271.56;;;7.25;58.69
50592;BME280;36548;50.506;30.834;2022-10-16T01:10:54;101270.14;;;7.15;58.62
50592;BME280;36548;50.506;30.834;2022-10-16T01:13:35;101278.96;;;7.17;58.68
50592;BME280;36548;50.506;30.834;2022-10-16T01:15:04;101269.62;;;7.30;58.74
50592;BME280;36548;50.506;30.834;2022-10-16T01:19:04;101274.73;;;7.37;58.52
50592;BME280;36548;50.506;30.834;2022-10-16T01:21:40;101275.56;;;7.39;58.56
50592;BME280;36548;50.506;30.834;2022-10-16T01:24:37;101273.64;;;7.42;58.42
50592;BME280;36548;50.506;30.834;2022-10-16T01:27:26;101279.88;;;7.43;58.13
50592;BME280;36548;50.506;30.834;2022-10-16T01:28:50;101276.68;;;7.31;58.19
50592;BME280;36548;50.506;30.834;2022-10-16T01:30:16;101282.44;;;7.46;58.49
50592;BME280;36548;50.506;30.834;2022-10-16T01:31:25;101280.02;;;7.38;58.41
50592;BME280;36548;50.506;30.834;2022-10-16T01:34:03;101282.49;;;7.44;58.13
50592;BME280;36548;50.506;30.834;2022-10-16T01:35:38;101286.45;;;7.58;58.03
50592;BME280;36548;50.506;30.834;2022-10-16T01:38:15;101291.60;;;7.64;57.66
50592;BME280;36548;50.506;30.834;2022-10-16T01:39:28;101293.78;;;7.53;57.62
50592;BME280;36548;50.506;30.834;2022-10-16T01:40:53;101293.44;;;7.62;57.63
50592;BME280;36548;50.506;30.834;2022-10-16T01:42:00;101289.42;;;7.50;57.57
50592;BME280;36548;50.506;30.834;2022-10-16T01:43:21;101290.83;;;7.60;57.71
50592;BME280;36548;50.506;30.834;2022-10-16T01:44:32;101295.63;;;7.50;57.62
50592;BME280;36548;50.506;30.834;2022-10-16T01:45:57;101289.05;;;7.61;57.51
50592;BME280;36548;50.506;30.834;2022-10-16T01:47:09;101291.25;;;7.48;57.47
50592;BME280;36548;50.506;30.834;2022-10-16T01:48:46;101296.45;;;7.53;57.48
50592;BME280;36548;50.506;30.834;2022-10-16T01:49:57;101298.64;;;7.41;57.32
50592;BME280;36548;50.506;30.834;2022-10-16T01:51:15;101298.47;;;7.46;57.28
50592;BME280;36548;50.506;30.834;2022-10-16T01:52:29;101298.05;;;7.31;57.29
50592;BME280;36548;50.506;30.834;2022-10-16T01:53:47;101296.05;;;7.38;57.25
50592;BME280;36548;50.506;30.834;2022-10-16T01:54:59;101295.72;;;7.22;57.38
50592;BME280;36548;50.506;30.834;2022-10-16T01:56:17;101306.17;;;7.28;57.47
50592;BME280;36548;50.506;30.834;2022-10-16T01:57:30;101303.05;;;7.15;57.58
50592;BME280;36548;50.506;30.834;2022-10-16T01:59:03;101300.14;;;7.23;57.68
50592;BME280;36548;50.506;30.834;2022-10-16T02:00:14;101303.22;;;7.11;57.73
50592;BME280;36548;50.506;30.834;2022-10-16T02:01:26;101313.91;;;7.09;57.56
50592;BME280;36548;50.506;30.834;2022-10-16T02:02:45;101297.71;;;7.15;57.77
50592;BME280;36548;50.506;30.834;2022-10-16T02:03:58;101313.27;;;7.03;57.76
50592;BME280;36548;50.506;30.834;2022-10-16T02:05:38;101297.82;;;7.12;57.88
50592;BME280;36548;50.506;30.834;2022-10-16T02:06:49;101306.18;;;7.02;57.88
50592;BME280;36548;50.506;30.834;2022-10-16T02:08:09;101305.39;;;6.98;57.85
50592;BME280;36548;50.506;30.834;2022-10-16T02:09:29;101303.67;;;6.97;57.93
50592;BME280;36548;50.506;30.834;2022-10-16T02:10:39;101310.84;;;6.95;57.90
50592;BME280;36548;50.506;30.834;2022-10-16T02:11:57;101305.27;;;7.03;57.88
50592;BME280;36548;50.506;30.834;2022-10-16T02:13:23;101311.81;;;6.92;57.82
50592;BME280;36548;50.506;30.834;2022-10-16T02:14:40;101311.63;;;6.98;57.82
50592;BME280;36548;50.506;30.834;2022-10-16T02:15:50;101318.27;;;6.85;57.91
50592;BME280;36548;50.506;30.834;2022-10-16T02:17:15;101316.23;;;6.93;57.91
50592;BME280;36548;50.506;30.834;2022-10-16T02:18:25;101318.37;;;6.82;57.88
50592;BME280;36548;50.506;30.834;2022-10-16T02:19:46;101318.95;;;6.92;57.80
50592;BME280;36548;50.506;30.834;2022-10-16T02:22:38;101320.03;;;6.86;57.49
50592;BME280;36548;50.506;30.834;2022-10-16T02:23:51;101316.04;;;6.71;57.59
50592;BME280;36548;50.506;30.834;2022-10-16T02:25:15;101325.64;;;6.77;57.62
50592;BME280;36548;50.506;30.834;2022-10-16T02:26:27;101321.60;;;6.63;57.62
50592;BME280;36548;50.506;30.834;2022-10-16T02:28:06;101321.33;;;6.73;57.63
50592;BME280;36548;50.506;30.834;2022-10-16T02:29:19;101321.75;;;6.59;57.67
50592;BME280;36548;50.506;30.834;2022-10-16T02:30:41;101315.30;;;6.66;57.68
50592;BME280;36548;50.506;30.834;2022-10-16T02:31:59;101318.34;;;6.54;57.57
50592;BME280;36548;50.506;30.834;2022-10-16T02:33:11;101318.45;;;6.51;57.75
50592;BME280;36548;50.506;30.834;2022-10-16T02:34:32;101313.70;;;6.60;57.82
50592;BME280;36548;50.506;30.834;2022-10-16T02:35:43;101323.88;;;6.47;57.72
50592;BME280;36548;50.506;30.834;2022-10-16T02:37:02;101321.02;;;6.54;57.73
50592;BME280;36548;50.506;30.834;2022-10-16T02:38:14;101328.52;;;6.41;57.77
50592;BME280;36548;50.506;30.834;2022-10-16T02:39:31;101321.16;;;6.49;57.78
50592;BME280;36548;50.506;30.834;2022-10-16T02:40:51;101330.44;;;6.36;57.89
50592;BME280;36548;50.506;30.834;2022-10-16T02:42:00;101329.58;;;6.35;57.88
50592;BME280;36548;50.506;30.834;2022-10-16T02:43:17;101321.37;;;6.43;58.03
50592;BME280;36548;50.506;30.834;2022-10-16T02:44:27;101324.34;;;6.32;57.79
50592;BME280;36548;50.506;30.834;2022-10-16T02:45:44;101326.75;;;6.41;57.89
50592;BME280;36548;50.506;30.834;2022-10-16T02:46:53;101328.83;;;6.30;57.79
50592;BME280;36548;50.506;30.834;2022-10-16T02:48:09;101323.19;;;6.41;57.76
50592;BME280;36548;50.506;30.834;2022-10-16T02:49:26;101332.45;;;6.29;57.77
50592;BME280;36548;50.506;30.834;2022-10-16T02:50:35;101328.98;;;6.25;57.93
50592;BME280;36548;50.506;30.834;2022-10-16T02:51:50;101335.77;;;6.36;58.00
50592;BME280;36548;50.506;30.834;2022-10-16T02:52:59;101340.46;;;6.27;57.77
50592;BME280;36548;50.506;30.834;2022-10-16T02:54:15;101330.44;;;6.36;57.78
50592;BME280;36548;50.506;30.834;2022-10-16T02:55:25;101337.84;;;6.26;57.72
50592;BME280;36548;50.506;30.834;2022-10-16T02:56:44;101327.83;;;6.34;57.76
50592;BME280;36548;50.506;30.834;2022-10-16T02:57:54;101336.16;;;6.23;57.71
50592;BME280;36548;50.506;30.834;2022-10-16T02:59:10;101326.17;;;6.30;57.74
50592;BME280;36548;50.506;30.834;2022-10-16T03:00:20;101334.50;;;6.19;57.72
50592;BME280;36548;50.506;30.834;2022-10-16T03:01:36;101338.69;;;6.28;57.88
50592;BME280;36548;50.506;30.834;2022-10-16T03:02:46;101336.38;;;6.16;57.89
50592;BME280;36548;50.506;30.834;2022-10-16T03:04:02;101335.17;;;6.26;57.92
50592;BME280;36548;50.506;30.834;2022-10-16T03:05:11;101337.33;;;6.13;57.96
50592;BME280;36548;50.506;30.834;2022-10-16T03:06:31;101334.41;;;6.22;57.97
50592;BME280;36548;50.506;30.834;2022-10-16T03:07:40;101345.33;;;6.13;58.03
50592;BME280;36548;50.506;30.834;2022-10-16T03:08:50;101340.91;;;6.12;58.07
50592;BME280;36548;50.506;30.834;2022-10-16T03:10:06;101343.31;;;6.21;58.00
50592;BME280;36548;50.506;30.834;2022-10-16T03:11:16;101354.33;;;6.09;58.16
50592;BME280;36548;50.506;30.834;2022-10-16T03:12:32;101337.19;;;6.18;58.25
50592;BME280;36548;50.506;30.834;2022-10-16T03:13:42;101353.52;;;6.07;58.26
50592;BME280;36548;50.506;30.834;2022-10-16T03:14:58;101344.28;;;6.19;58.35
50592;BME280;36548;50.506;30.834;2022-10-16T03:16:08;101347.23;;;6.09;58.19
50592;BME280;36548;50.506;30.834;2022-10-16T03:17:23;101344.28;;;6.19;58.25
50592;BME280;36548;50.506;30.834;2022-10-16T03:18:34;101359.66;;;6.09;58.29
50592;BME280;36548;50.506;30.834;2022-10-16T03:19:49;101344.28;;;6.19;58.27
50592;BME280;36548;50.506;30.834;2022-10-16T03:21:00;101357.04;;;6.07;58.28
50592;BME280;36548;50.506;30.834;2022-10-16T03:22:16;101350.52;;;6.18;58.27
50592;BME280;36548;50.506;30.834;2022-10-16T03:23:26;101346.38;;;6.07;58.26
50592;BME280;36548;50.506;30.834;2022-10-16T03:24:41;101350.52;;;6.18;58.15
50592;BME280;36548;50.506;30.834;2022-10-16T03:25:50;101350.84;;;6.07;58.21
50592;BME280;36548;50.506;30.834;2022-10-16T03:27:06;101353.23;;;6.16;58.20
50592;BME280;36548;50.506;30.834;2022-10-16T03:28:15;101355.42;;;6.02;58.17
50592;BME280;36548;50.506;30.834;2022-10-16T03:29:31;101353.33;;;6.13;58.25
50592;BME280;36548;50.506;30.834;2022-10-16T03:30:42;101357.23;;;6.01;58.23
50592;BME280;36548;50.506;30.834;2022-10-16T03:31:58;101353.42;;;6.10;58.30
50592;BME280;36548;50.506;30.834;2022-10-16T03:33:07;101357.24;;;6.00;58.35
50592;BME280;36548;50.506;30.834;2022-10-16T03:34:23;101345.47;;;6.08;58.32
50592;BME280;36548;50.506;30.834;2022-10-16T03:35:32;101359.97;;;5.96;58.35
50592;BME280;36548;50.506;30.834;2022-10-16T03:36:48;101355.28;;;6.06;58.41
50592;BME280;36548;50.506;30.834;2022-10-16T03:37:57;101369.81;;;5.94;58.43
50592;BME280;36548;50.506;30.834;2022-10-16T03:39:13;101357.19;;;6.03;58.50
50592;BME280;36548;50.506;30.834;2022-10-16T03:40:23;101361.02;;;5.91;58.54
50592;BME280;36548;50.506;30.834;2022-10-16T03:41:39;101365.17;;;6.03;58.49
50592;BME280;36548;50.506;30.834;2022-10-16T03:42:49;101361.92;;;5.90;58.63
50592;BME280;36548;50.506;30.834;2022-10-16T03:44:04;101359.89;;;6.01;58.59
50592;BME280;36548;50.506;30.834;2022-10-16T03:45:14;101363.72;;;5.89;58.57
50592;BME280;36548;50.506;30.834;2022-10-16T03:46:30;101365.28;;;5.98;58.77
50592;BME280;36548;50.506;30.834;2022-10-16T03:47:38;101366.43;;;5.88;58.70
50592;BME280;36548;50.506;30.834;2022-10-16T03:48:55;101367.09;;;5.97;58.80
50592;BME280;36548;50.506;30.834;2022-10-16T03:50:05;101368.25;;;5.86;58.83
50592;BME280;36548;50.506;30.834;2022-10-16T03:51:22;101365.34;;;5.95;58.85
50592;BME280;36548;50.506;30.834;2022-10-16T03:52:31;101374.52;;;5.85;58.91
50592;BME280;36548;50.506;30.834;2022-10-16T03:53:47;101366.25;;;5.94;58.95
50592;BME280;36548;50.506;30.834;2022-10-16T03:54:56;101369.23;;;5.83;59.02
50592;BME280;36548;50.506;30.834;2022-10-16T03:56:12;101366.30;;;5.92;59.05
50592;BME280;36548;50.506;30.834;2022-10-16T03:57:22;101369.25;;;5.81;59.15
50592;BME280;36548;50.506;30.834;2022-10-16T03:58:37;101361.86;;;5.93;59.15
50592;BME280;36548;50.506;30.834;2022-10-16T03:59:46;101366.56;;;5.83;59.20
50592;BME280;36548;50.506;30.834;2022-10-16T04:01:02;101367.19;;;5.93;59.18
50592;BME280;36548;50.506;30.834;2022-10-16T04:02:11;101363.91;;;5.81;59.21
50592;BME280;36548;50.506;30.834;2022-10-16T04:03:46;101360.15;;;5.90;59.22
50592;BME280;36548;50.506;30.834;2022-10-16T04:04:54;101362.23;;;5.79;59.27
50592;BME280;36548;50.506;30.834;2022-10-16T04:06:11;101364.63;;;5.88;59.35
50592;BME280;36548;50.506;30.834;2022-10-16T04:07:21;101368.52;;;5.76;59.44
50592;BME280;36548;50.506;30.834;2022-10-16T04:08:37;101370.00;;;5.87;59.62
50592;BME280;36548;50.506;30.834;2022-10-16T04:09:48;101376.47;;;5.78;59.50
50592;BME280;36548;50.506;30.834;2022-10-16T04:10:57;101367.56;;;5.79;59.53
50592;BME280;36548;50.506;30.834;2022-10-16T04:12:13;101361.97;;;5.88;59.51
50592;BME280;36548;50.506;30.834;2022-10-16T04:13:23;101372.95;;;5.76;59.63
50592;BME280;36548;50.506;30.834;2022-10-16T04:14:38;101361.10;;;5.88;59.63
50592;BME280;36548;50.506;30.834;2022-10-16T04:15:46;101365.00;;;5.74;59.58
50592;BME280;36548;50.506;30.834;2022-10-16T04:17:02;101363.81;;;5.86;59.59
50592;BME280;36548;50.506;30.834;2022-10-16T04:18:12;101366.80;;;5.74;59.63
50592;BME280;36548;50.506;30.834;2022-10-16T04:19:27;101364.77;;;5.84;59.72
50592;BME280;36548;50.506;30.834;2022-10-16T04:20:37;101366.00;;;5.70;59.80
50592;BME280;36548;50.506;30.834;2022-10-16T04:21:54;101358.59;;;5.81;59.74
50592;BME280;36548;50.506;30.834;2022-10-16T04:23:06;101366.94;;;5.69;59.85
50592;BME280;36548;50.506;30.834;2022-10-16T04:24:21;101359.58;;;5.77;59.92
50592;BME280;36548;50.506;30.834;2022-10-16T04:25:31;101366.13;;;5.66;59.94
50592;BME280;36548;50.506;30.834;2022-10-16T04:26:46;101364.09;;;5.75;60.05
50592;BME280;36548;50.506;30.834;2022-10-16T04:27:56;101368.84;;;5.64;59.94
50592;BME280;36548;50.506;30.834;2022-10-16T04:29:11;101372.17;;;5.72;60.20
50592;BME280;36548;50.506;30.834;2022-10-16T04:30:21;101372.49;;;5.60;60.35
50592;BME280;36548;50.506;30.834;2022-10-16T04:31:37;101368.60;;;5.73;60.52
50592;BME280;36548;50.506;30.834;2022-10-16T04:32:50;101370.59;;;5.65;60.44
50592;BME280;36548;50.506;30.834;2022-10-16T04:34:06;101365.80;;;5.78;60.44
50592;BME280;36548;50.506;30.834;2022-10-16T04:35:16;101369.59;;;5.69;60.42
50592;BME280;36548;50.506;30.834;2022-10-16T04:36:31;101365.39;;;5.93;60.65
50592;BME280;36548;50.506;30.834;2022-10-16T04:37:40;101372.42;;;5.97;60.59
50592;BME280;36548;50.506;30.834;2022-10-16T04:38:56;101364.44;;;6.29;60.39
50592;BME280;36548;50.506;30.834;2022-10-16T04:40:06;101380.16;;;6.38;60.29
50592;BME280;36548;50.506;30.834;2022-10-16T04:41:22;101372.87;;;6.75;59.79
50592;BME280;36548;50.506;30.834;2022-10-16T04:42:31;101374.42;;;6.82;59.13
50592;BME280;36548;50.506;30.834;2022-10-16T04:43:46;101374.23;;;7.16;58.63
50592;BME280;36548;50.506;30.834;2022-10-16T04:44:56;101385.38;;;7.29;58.32
50592;BME280;36548;50.506;30.834;2022-10-16T04:46:11;101374.22;;;7.70;57.84
50592;BME280;36548;50.506;30.834;2022-10-16T04:47:19;101378.28;;;7.82;57.29
50592;BME280;36548;50.506;30.834;2022-10-16T04:48:34;101386.66;;;8.22;56.60
50592;BME280;36548;50.506;30.834;2022-10-16T04:49:43;101387.10;;;8.34;56.14
50592;BME280;36548;50.506;30.834;2022-10-16T04:50:59;101384.61;;;8.77;55.69
50592;BME280;36548;50.506;30.834;2022-10-16T04:52:08;101387.31;;;8.99;55.02
50592;BME280;36548;50.506;30.834;2022-10-16T04:53:25;101391.67;;;9.46;54.08
50592;BME280;36548;50.506;30.834;2022-10-16T04:54:35;101391.78;;;9.65;53.43
50592;BME280;36548;50.506;30.834;2022-10-16T04:55:50;101387.02;;;10.13;51.94
50592;BME280;36548;50.506;30.834;2022-10-16T04:56:59;101396.95;;;10.32;51.64
50592;BME280;36548;50.506;30.834;2022-10-16T04:58:09;101393.70;;;10.65;51.21
50592;BME280;36548;50.506;30.834;2022-10-16T04:59:19;101397.53;;;10.97;50.37
50592;BME280;36548;50.506;30.834;2022-10-16T05:00:28;101392.48;;;11.28;49.58
50592;BME280;36548;50.506;30.834;2022-10-16T05:01:45;101393.95;;;11.70;48.39
50592;BME280;36548;50.506;30.834;2022-10-16T05:02:53;101395.94;;;11.84;47.90
50592;BME280;36548;50.506;30.834;2022-10-16T05:04:10;101399.09;;;12.27;47.40
50592;BME280;36548;50.506;30.834;2022-10-16T05:05:19;101391.94;;;12.43;45.59
50592;BME280;36548;50.506;30.834;2022-10-16T05:06:29;101399.63;;;12.67;45.95
50592;BME280;36548;50.506;30.834;2022-10-16T05:07:37;101396.52;;;12.91;45.47
50592;BME280;36548;50.506;30.834;2022-10-16T05:08:52;101395.85;;;13.35;44.74
50592;BME280;36548;50.506;30.834;2022-10-16T05:10:01;101400.38;;;13.51;44.21
50592;BME280;36548;50.506;30.834;2022-10-16T05:11:18;101392.22;;;13.97;43.34
50592;BME280;36548;50.506;30.834;2022-10-16T05:12:28;101396.69;;;14.12;42.70
50592;BME280;36548;50.506;30.834;2022-10-16T05:13:44;101394.68;;;14.45;41.85
50592;BME280;36548;50.506;30.834;2022-10-16T05:14:52;101395.27;;;14.50;41.58
50592;BME280;36548;50.506;30.834;2022-10-16T05:16:08;101393.64;;;14.62;40.54
50592;BME280;36548;50.506;30.834;2022-10-16T05:17:17;101398.37;;;14.44;40.80
50592;BME280;36548;50.506;30.834;2022-10-16T05:18:32;101401.73;;;14.47;40.47
50592;BME280;36548;50.506;30.834;2022-10-16T05:19:42;101399.33;;;14.43;40.71
50592;BME280;36548;50.506;30.834;2022-10-16T05:20:53;101411.48;;;14.50;40.43
50592;BME280;36548;50.506;30.834;2022-10-16T05:22:02;101397.77;;;14.53;40.30
50592;BME280;36548;50.506;30.834;2022-10-16T05:23:16;101407.52;;;14.56;39.83
50592;BME280;36548;50.506;30.834;2022-10-16T05:24:26;101415.23;;;14.33;39.87
50592;BME280;36548;50.506;30.834;2022-10-16T05:25:42;101410.13;;;14.28;39.92
50592;BME280;36548;50.506;30.834;2022-10-16T05:26:52;101416.73;;;14.08;40.18
50592;BME280;36548;50.506;30.834;2022-10-16T05:28:14;101417.69;;;14.07;40.21
50592;BME280;36548;50.506;30.834;2022-10-16T05:29:23;101419.31;;;13.95;40.34
50592;BME280;36548;50.506;30.834;2022-10-16T05:30:39;101419.82;;;14.02;40.38
50592;BME280;36548;50.506;30.834;2022-10-16T05:31:50;101428.66;;;13.90;40.63
50592;BME280;36548;50.506;30.834;2022-10-16T05:33:01;101430.56;;;13.88;40.42
50592;BME280;36548;50.506;30.834;2022-10-16T05:34:16;101436.37;;;13.96;40.59
50592;BME280;36548;50.506;30.834;2022-10-16T05:35:25;101427.00;;;13.87;40.64
50592;BME280;36548;50.506;30.834;2022-10-16T05:36:35;101438.66;;;13.88;40.67
50592;BME280;36548;50.506;30.834;2022-10-16T05:37:50;101435.52;;;13.95;40.35
50592;BME280;36548;50.506;30.834;2022-10-16T05:39:00;101441.03;;;13.78;40.34
50592;BME280;36548;50.506;30.834;2022-10-16T05:40:16;101429.63;;;13.73;40.48
50592;BME280;36548;50.506;30.834;2022-10-16T05:41:25;101445.25;;;13.52;40.56
50592;BME280;36548;50.506;30.834;2022-10-16T05:42:36;101445.01;;;13.40;40.86
50592;BME280;36548;50.506;30.834;2022-10-16T05:43:53;101442.41;;;13.39;41.01
50592;BME280;36548;50.506;30.834;2022-10-16T05:45:04;101452.20;;;13.24;41.20
50592;BME280;36548;50.506;30.834;2022-10-16T06:21:40;101487.02;;;12.10;44.31
50592;BME280;36548;50.506;30.834;2022-10-16T06:22:49;101494.22;;;11.91;44.23
50592;BME280;36548;50.506;30.834;2022-10-16T06:24:04;101487.82;;;11.93;44.66
50592;BME280;36548;50.506;30.834;2022-10-16T06:25:14;101490.27;;;11.81;44.96
50592;BME280;36548;50.506;30.834;2022-10-16T06:26:27;101497.60;;;11.77;45.11
50592;BME280;36548;50.506;30.834;2022-10-16T06:27:42;101493.61;;;11.86;45.30
50592;BME280;36548;50.506;30.834;2022-10-16T06:28:51;101503.14;;;11.74;45.37
50592;BME280;36548;50.506;30.834;2022-10-16T06:30:00;101502.36;;;11.72;45.57
50592;BME280;36548;50.506;30.834;2022-10-16T06:31:12;101501.55;;;11.70;45.70
50592;BME280;36548;50.506;30.834;2022-10-16T06:32:22;101507.83;;;11.70;45.62
50592;BME280;36548;50.506;30.834;2022-10-16T06:33:32;101516.91;;;11.68;45.72
50592;BME280;36548;50.506;30.834;2022-10-16T06:34:41;101507.41;;;11.60;45.96
50592;BME280;36548;50.506;30.834;2022-10-16T06:36:11;101504.32;;;11.68;46.24
50592;BME280;36548;50.506;30.834;2022-10-16T06:37:20;101506.75;;;11.55;46.25
50592;BME280;36548;50.506;30.834;2022-10-16T06:38:37;101501.29;;;11.57;46.33
50592;BME280;36548;50.506;30.834;2022-10-16T06:39:46;101516.19;;;11.45;46.61
50592;BME280;36548;50.506;30.834;2022-10-16T06:41:02;101508.63;;;11.53;46.70
50592;BME280;36548;50.506;30.834;2022-10-16T06:42:10;101512.05;;;11.38;46.71
50592;BME280;36548;50.506;30.834;2022-10-16T06:43:26;101510.88;;;11.43;47.21
50592;BME280;36548;50.506;30.834;2022-10-16T06:44:35;101518.59;;;11.32;47.51
50592;BME280;36548;50.506;30.834;2022-10-16T06:45:56;101511.78;;;11.44;47.56
50592;BME280;36548;50.506;30.834;2022-10-16T06:47:06;101510.53;;;11.32;47.61
50592;BME280;36548;50.506;30.834;2022-10-16T06:48:15;101516.84;;;11.31;47.52
50592;BME280;36548;50.506;30.834;2022-10-16T06:49:31;101512.36;;;11.32;47.78
50592;BME280;36548;50.506;30.834;2022-10-16T06:50:40;101515.70;;;11.18;48.34
50592;BME280;36548;50.506;30.834;2022-10-16T06:51:49;101509.51;;;11.16;48.51
50592;BME280;36548;50.506;30.834;2022-10-16T06:53:03;101508.00;;;11.29;48.75
50592;BME280;36548;50.506;30.834;2022-10-16T06:54:15;101512.27;;;11.14;48.55
50592;BME280;36548;50.506;30.834;2022-10-16T06:55:25;101515.89;;;11.13;49.05
50592;BME280;36548;50.506;30.834;2022-10-16T06:56:35;101516.70;;;11.15;49.34
50592;BME280;36548;50.506;30.834;2022-10-16T06:57:51;101511.70;;;11.26;49.24
50592;BME280;36548;50.506;30.834;2022-10-16T06:59:01;101518.46;;;11.16;49.47
50592;BME280;36548;50.506;30.834;2022-10-16T07:00:11;101512.00;;;11.20;49.36
50592;BME280;36548;50.506;30.834;2022-10-16T07:01:27;101508.00;;;11.29;49.10
50592;BME280;36548;50.506;30.834;2022-10-16T07:02:39;101512.13;;;11.17;49.31
50592;BME280;36548;50.506;30.834;2022-10-16T07:03:55;101505.46;;;11.26;48.91
50592;BME280;36548;50.506;30.834;2022-10-16T07:05:05;101506.19;;;11.11;49.08
50592;BME280;36548;50.506;30.834;2022-10-16T07:06:21;101507.20;;;11.08;49.51
50592;BME280;36548;50.506;30.834;2022-10-16T07:07:30;101510.97;;;11.04;49.60
50592;BME280;36548;50.506;30.834;2022-10-16T07:08:40;101518.21;;;11.02;49.91
50592;BME280;36548;50.506;30.834;2022-10-16T07:09:49;101515.60;;;11.00;49.45
50592;BME280;36548;50.506;30.834;2022-10-16T07:11:05;101509.62;;;10.94;49.46
50592;BME280;36548;50.506;30.834;2022-10-16T07:12:14;101509.06;;;10.87;49.66
50592;BME280;36548;50.506;30.834;2022-10-16T07:13:36;101505.15;;;10.94;50.07
50592;BME280;36548;50.506;30.834;2022-10-16T07:14:46;101512.77;;;10.84;50.20
50592;BME280;36548;50.506;30.834;2022-10-16T07:16:09;101507.77;;;10.96;50.32
50592;BME280;36548;50.506;30.834;2022-10-16T07:17:19;101524.22;;;10.88;50.47
50592;BME280;36548;50.506;30.834;2022-10-16T07:18:34;101519.10;;;11.02;50.62
50592;BME280;36548;50.506;30.834;2022-10-16T07:19:46;101523.95;;;10.94;50.43